Time;durP1;ratioP1;P1;durP2;ratioP2;P2;SDS_P1;SDS_P2;PMS_P1;PMS_P2;Temp;Humidity;BMP_temperature;BMP_pressure;BME280_temperature;BME280_humidity;BME280_pressure;Samples;Min_cycle;Max_cycle;Signal;HPM_P1;HPM_P2
2021/11/22 00:01:30;;;;;;;6.20;3.93;;;9.30;99.90;;;;;;4971795;28;20209;-75
2021/11/22 00:03:57;;;;;;;6.63;4.27;;;9.30;99.90;;;;;;4971333;28;20210;-75
2021/11/22 00:06:24;;;;;;;6.90;4.97;;;9.30;99.90;;;;;;4971586;28;20260;-76
2021/11/22 00:08:51;;;;;;;6.60;4.37;;;9.20;99.90;;;;;;4971821;28;20209;-76
2021/11/22 00:11:19;;;;;;;6.00;4.60;;;9.10;99.90;;;;;;4971568;28;20260;-76
2021/11/22 00:13:46;;;;;;;5.30;4.03;;;9.00;99.90;;;;;;4971776;28;20213;-78
2021/11/22 00:16:13;;;;;;;7.73;4.47;;;8.90;99.90;;;;;;4971505;28;20676;-77
2021/11/22 00:18:43;;;;;;;7.33;4.37;;;8.90;99.90;;;;;;4971557;28;20269;-76
2021/11/22 00:21:10;;;;;;;5.77;4.07;;;8.90;99.90;;;;;;4971765;28;20213;-77
2021/11/22 00:23:37;;;;;;;5.53;4.40;;;8.90;99.90;;;;;;4972925;28;20205;-76
2021/11/22 00:26:04;;;;;;;7.47;5.17;;;8.90;99.90;;;;;;4978124;28;20206;-73
2021/11/22 00:28:33;;;;;;;4.60;4.17;;;8.90;99.90;;;;;;4977774;28;20374;-74
2021/11/22 00:31:00;;;;;;;5.73;4.30;;;8.80;99.90;;;;;;4978000;28;20206;-73
2021/11/22 00:33:27;;;;;;;4.63;3.80;;;8.70;99.90;;;;;;4977578;28;20213;-73
2021/11/22 00:35:54;;;;;;;5.67;4.20;;;8.70;99.90;;;;;;4977724;28;20213;-74
2021/11/22 00:38:21;;;;;;;4.87;3.37;;;8.70;99.90;;;;;;4977281;28;20241;-73
2021/11/22 00:40:48;;;;;;;4.37;3.97;;;8.70;99.90;;;;;;4978005;28;20244;-81
2021/11/22 00:43:15;;;;;;;4.83;3.70;;;8.70;99.90;;;;;;4977642;28;20209;-73
2021/11/22 00:45:44;;;;;;;4.10;3.13;;;8.70;99.90;;;;;;4990888;28;20209;-74
2021/11/22 00:48:11;;;;;;;4.23;3.43;;;8.60;99.90;;;;;;4978063;28;20267;-74
2021/11/22 00:50:38;;;;;;;4.97;3.73;;;8.70;99.90;;;;;;4977900;28;20559;-73
2021/11/22 00:53:05;;;;;;;5.53;3.87;;;8.60;99.90;;;;;;4978585;28;20209;-73
2021/11/22 00:55:32;;;;;;;5.50;4.13;;;8.60;99.90;;;;;;4977577;28;20629;-77
2021/11/22 00:57:59;;;;;;;4.63;3.30;;;8.60;99.90;;;;;;4977854;28;20232;-77
2021/11/22 01:00:27;;;;;;;5.03;3.73;;;8.70;99.90;;;;;;4977372;28;20288;-77
2021/11/22 01:02:56;;;;;;;4.50;3.20;;;8.70;99.90;;;;;;4977761;28;20206;-76
2021/11/22 01:05:23;;;;;;;4.60;3.80;;;8.70;99.90;;;;;;4977233;28;20218;-78
2021/11/22 01:07:50;;;;;;;3.80;2.77;;;8.70;99.90;;;;;;4978168;28;20656;-77
2021/11/22 01:10:18;;;;;;;4.97;3.33;;;8.70;99.90;;;;;;4977401;28;20209;-76
2021/11/22 01:12:46;;;;;;;4.67;3.17;;;8.60;99.90;;;;;;4977671;28;20248;-76
2021/11/22 01:15:16;;;;;;;5.67;4.57;;;8.50;99.90;;;;;;4977141;28;20288;-76
2021/11/22 01:17:43;;;;;;;6.63;3.70;;;8.60;99.90;;;;;;4977859;28;20276;-76
2021/11/22 01:20:14;;;;;;;8.83;4.47;;;8.70;99.90;;;;;;4978022;28;20231;-76
2021/11/22 01:22:42;;;;;;;5.63;4.07;;;8.60;99.90;;;;;;4977506;28;20205;-74
2021/11/22 01:25:11;;;;;;;5.30;3.80;;;8.60;99.90;;;;;;4977854;28;20566;-73
2021/11/22 01:27:39;;;;;;;5.93;3.80;;;8.60;99.90;;;;;;4977739;28;20209;-75
2021/11/22 01:30:11;;;;;;;5.83;4.70;;;8.60;99.90;;;;;;4977799;28;20214;-75
2021/11/22 01:32:39;;;;;;;9.70;4.03;;;8.60;99.90;;;;;;4977587;28;20207;-76
2021/11/22 01:35:06;;;;;;;4.30;3.40;;;8.50;99.90;;;;;;4977062;28;20268;-76
2021/11/22 01:37:35;;;;;;;4.47;3.73;;;8.60;99.90;;;;;;4973688;28;20614;-77
2021/11/22 01:40:02;;;;;;;5.57;4.47;;;8.60;99.90;;;;;;4974302;28;20790;-77
2021/11/22 01:42:30;;;;;;;6.20;4.40;;;8.60;99.90;;;;;;4973810;28;20670;-76
2021/11/22 01:44:57;;;;;;;5.03;3.27;;;8.60;99.90;;;;;;4974212;28;20257;-77
2021/11/22 01:47:24;;;;;;;6.73;3.97;;;8.70;99.90;;;;;;4973949;28;20225;-77
2021/11/22 01:49:51;;;;;;;7.97;3.97;;;8.60;99.90;;;;;;4987776;28;20217;-77
2021/11/22 01:52:18;;;;;;;6.70;4.47;;;8.50;99.90;;;;;;4974141;28;20210;-77
2021/11/22 01:54:46;;;;;;;5.33;4.00;;;8.30;99.90;;;;;;4974257;28;20206;-77
2021/11/22 01:57:13;;;;;;;8.20;5.63;;;8.30;99.90;;;;;;4973792;28;20280;-76
2021/11/22 01:59:40;;;;;;;11.23;7.63;;;8.20;99.90;;;;;;4973818;28;20308;-76
2021/11/22 02:02:09;;;;;;;12.73;9.03;;;8.20;99.90;;;;;;4973987;28;20721;-74
2021/11/22 02:04:36;;;;;;;15.13;9.10;;;8.20;99.90;;;;;;4974242;28;20219;-77
2021/11/22 02:07:03;;;;;;;14.93;9.93;;;8.20;99.90;;;;;;4974059;28;20267;-75
2021/11/22 02:09:30;;;;;;;14.10;8.53;;;8.20;99.90;;;;;;4973523;28;20868;-76
2021/11/22 02:11:58;;;;;;;19.73;10.57;;;8.10;99.90;;;;;;4973493;28;20735;-75
2021/11/22 02:14:25;;;;;;;15.20;10.43;;;8.10;99.90;;;;;;4973306;28;20210;-76
2021/11/22 02:16:52;;;;;;;13.33;8.80;;;8.10;99.90;;;;;;4973708;28;20747;-75
2021/11/22 02:19:19;;;;;;;13.93;8.10;;;8.10;99.90;;;;;;4973095;28;20280;-76
2021/11/22 02:21:48;;;;;;;16.43;9.63;;;8.10;99.90;;;;;;4973913;28;20209;-75
2021/11/22 02:24:15;;;;;;;13.27;10.17;;;8.00;99.90;;;;;;4973043;28;20670;-75
2021/11/22 02:26:42;;;;;;;13.73;9.13;;;8.00;99.90;;;;;;4973590;28;20201;-77
2021/11/22 02:29:09;;;;;;;14.93;8.80;;;8.00;99.90;;;;;;4973456;28;20213;-74
2021/11/22 02:31:37;;;;;;;13.77;8.23;;;7.90;99.90;;;;;;4973687;28;20260;-74
2021/11/22 02:34:07;;;;;;;10.33;6.50;;;7.90;99.90;;;;;;4973552;28;20217;-75
2021/11/22 02:36:34;;;;;;;12.60;7.00;;;8.00;99.90;;;;;;4973129;28;20232;-77
2021/11/22 02:39:04;;;;;;;9.47;7.10;;;8.00;99.90;;;;;;4973243;28;20312;-76
2021/11/22 02:41:33;;;;;;;9.23;6.57;;;7.90;99.90;;;;;;4973592;28;20209;-76
2021/11/22 02:44:02;;;;;;;9.13;6.70;;;7.90;99.90;;;;;;4973123;28;20218;-76
2021/11/22 02:46:29;;;;;;;9.80;6.47;;;8.00;99.90;;;;;;4972669;28;20202;-75
2021/11/22 02:48:56;;;;;;;7.53;5.70;;;8.00;99.90;;;;;;4972924;28;20585;-77
2021/11/22 02:51:23;;;;;;;9.93;5.20;;;7.90;99.90;;;;;;4972550;28;20213;-76
2021/11/22 02:53:58;;;;;;;7.93;5.83;;;7.90;99.90;;;;;;4973376;28;20272;-76
2021/11/22 02:56:30;;;;;;;6.27;4.47;;;7.90;99.90;;;;;;4972511;28;20205;-76
2021/11/22 02:58:58;;;;;;;8.83;5.10;;;8.00;99.90;;;;;;4972897;28;20237;-75
2021/11/22 03:01:25;;;;;;;6.37;5.27;;;8.00;99.90;;;;;;4972569;28;20209;-75
2021/11/22 03:03:54;;;;;;;7.53;5.33;;;7.90;99.90;;;;;;4972763;28;20213;-75
2021/11/22 03:06:24;;;;;;;7.97;6.37;;;7.90;99.90;;;;;;4972543;28;20272;-75
2021/11/22 03:08:51;;;;;;;7.73;6.57;;;7.90;99.90;;;;;;4972542;28;20264;-75
2021/11/22 03:11:20;;;;;;;7.97;6.63;;;8.10;99.90;;;;;;4972659;28;20257;-76
2021/11/22 03:13:49;;;;;;;7.83;6.10;;;8.00;99.90;;;;;;4970618;28;20232;-76
2021/11/22 03:16:18;;;;;;;10.90;6.73;;;8.10;99.90;;;;;;4972413;28;20268;-77
2021/11/22 03:18:45;;;;;;;9.37;6.70;;;7.90;99.90;;;;;;4972299;28;20229;-76
2021/11/22 03:21:12;;;;;;;10.77;7.10;;;7.90;99.90;;;;;;4972279;28;20205;-76
2021/11/22 03:23:41;;;;;;;8.43;6.20;;;7.80;99.90;;;;;;4959518;28;20217;-72
2021/11/22 03:26:09;;;;;;;10.37;8.03;;;7.80;99.90;;;;;;4972982;28;20213;-77
2021/11/22 03:28:36;;;;;;;10.77;7.80;;;7.90;99.90;;;;;;4972183;28;20209;-76
2021/11/22 03:31:05;;;;;;;12.53;6.43;;;7.90;99.90;;;;;;4972417;28;20292;-76
2021/11/22 03:33:32;;;;;;;11.93;8.03;;;8.00;99.90;;;;;;4972042;28;20205;-77
2021/11/22 03:36:00;;;;;;;11.03;7.70;;;7.90;99.90;;;;;;4972283;28;20613;-76
2021/11/22 03:38:29;;;;;;;11.03;7.33;;;7.80;99.90;;;;;;4971949;28;20213;-77
2021/11/22 03:40:57;;;;;;;8.70;7.13;;;7.80;99.90;;;;;;4972299;28;20673;-77
2021/11/22 03:43:31;;;;;;;10.40;6.70;;;7.90;99.90;;;;;;4971482;28;20598;-77
2021/11/22 03:45:58;;;;;;;13.80;7.60;;;7.90;99.90;;;;;;4972431;28;20217;-76
2021/11/22 03:48:27;;;;;;;10.20;6.60;;;7.90;99.90;;;;;;4971525;28;20217;-77
2021/11/22 03:50:54;;;;;;;8.77;6.73;;;7.80;99.90;;;;;;4971768;28;20210;-77
2021/11/22 03:53:21;;;;;;;10.00;6.27;;;7.80;99.90;;;;;;4971984;28;20246;-77
2021/11/22 03:55:48;;;;;;;7.83;6.10;;;7.80;99.90;;;;;;4971834;28;20245;-77
2021/11/22 03:58:15;;;;;;;11.07;7.87;;;7.80;99.90;;;;;;4981068;28;20750;-77
2021/11/22 04:00:43;;;;;;;12.50;7.40;;;7.80;99.90;;;;;;4975478;28;20323;-77
2021/11/22 04:03:10;;;;;;;12.37;7.70;;;7.80;99.90;;;;;;4972453;28;20205;-76
2021/11/22 04:05:38;;;;;;;11.30;8.13;;;7.90;99.90;;;;;;4972117;28;20210;-76
2021/11/22 04:08:07;;;;;;;10.00;7.40;;;7.80;99.90;;;;;;4972343;28;20244;-77
2021/11/22 04:10:35;;;;;;;8.40;6.47;;;7.70;99.90;;;;;;4971180;28;20218;-76
2021/11/22 04:13:02;;;;;;;10.33;8.20;;;7.60;99.90;;;;;;4971861;28;20651;-75
2021/11/22 04:15:29;;;;;;;9.30;6.90;;;7.80;99.90;;;;;;4971380;28;20689;-75
2021/11/22 04:17:56;;;;;;;9.63;6.73;;;7.80;99.90;;;;;;4971463;28;20678;-72
2021/11/22 04:20:23;;;;;;;9.27;6.67;;;7.80;99.90;;;;;;4971561;28;20237;-72
2021/11/22 04:22:52;;;;;;;11.57;7.37;;;7.70;99.90;;;;;;4971589;28;20206;-71
2021/11/22 04:25:20;;;;;;;12.33;7.60;;;7.70;99.90;;;;;;4971189;28;20213;-72
2021/11/22 04:27:47;;;;;;;8.13;6.83;;;7.60;99.90;;;;;;4971321;28;20292;-72
2021/11/22 04:30:15;;;;;;;10.10;7.30;;;7.60;99.90;;;;;;4971356;28;20208;-73
2021/11/22 04:32:42;;;;;;;10.03;6.80;;;7.80;99.90;;;;;;4971605;28;20272;-72
2021/11/22 04:35:11;;;;;;;10.30;6.37;;;7.70;99.90;;;;;;4971575;28;20209;-72
2021/11/22 04:37:39;;;;;;;11.03;6.57;;;7.60;99.90;;;;;;4971907;28;20213;-72
2021/11/22 04:40:11;;;;;;;7.67;6.20;;;7.50;99.90;;;;;;4971155;28;20236;-71
2021/11/22 04:42:38;;;;;;;8.43;6.40;;;7.60;99.90;;;;;;4972002;28;20264;-71
2021/11/22 04:45:06;;;;;;;10.10;5.43;;;7.70;99.90;;;;;;4971718;28;20213;-77
2021/11/22 04:47:34;;;;;;;10.07;6.23;;;7.60;99.90;;;;;;4971120;28;20236;-71
2021/11/22 04:50:02;;;;;;;11.20;6.27;;;7.70;99.90;;;;;;4971176;28;20217;-72
2021/11/22 04:52:29;;;;;;;9.23;7.00;;;7.60;99.90;;;;;;4971092;28;20260;-76
2021/11/22 04:54:56;;;;;;;9.53;5.97;;;7.60;99.90;;;;;;4971471;28;20636;-72
2021/11/22 04:57:25;;;;;;;8.87;6.07;;;7.70;99.90;;;;;;4970909;28;20206;-71
2021/11/22 04:59:52;;;;;;;11.10;6.13;;;7.80;99.90;;;;;;4970531;28;20229;-76
2021/11/22 05:02:19;;;;;;;9.97;7.27;;;7.70;99.90;;;;;;4970333;28;20257;-76
2021/11/22 05:04:46;;;;;;;8.87;6.40;;;7.70;99.90;;;;;;4971538;28;20272;-75
2021/11/22 05:07:13;;;;;;;8.17;5.93;;;7.70;99.90;;;;;;4969794;28;20213;-73
2021/11/22 05:09:40;;;;;;;8.23;6.13;;;7.70;99.90;;;;;;4970145;28;20635;-73
2021/11/22 05:12:08;;;;;;;8.23;6.40;;;7.60;99.90;;;;;;4974180;28;20640;-72
2021/11/22 05:14:36;;;;;;;8.80;6.47;;;7.60;99.90;;;;;;4974556;28;20214;-74
2021/11/22 05:17:03;;;;;;;9.13;6.03;;;7.40;99.90;;;;;;4974552;28;20221;-73
2021/11/22 05:19:32;;;;;;;7.20;4.90;;;7.50;99.90;;;;;;4973436;28;20776;-73
2021/11/22 05:22:00;;;;;;;6.83;5.40;;;7.60;99.90;;;;;;4974758;28;20206;-71
2021/11/22 05:24:27;;;;;;;7.60;5.97;;;7.60;99.90;;;;;;4973936;28;20268;-71
2021/11/22 05:26:55;;;;;;;11.07;6.80;;;7.50;99.90;;;;;;4974376;28;20210;-71
2021/11/22 05:29:22;;;;;;;8.87;6.20;;;7.60;99.90;;;;;;4974171;28;20268;-77
2021/11/22 05:31:50;;;;;;;6.63;5.07;;;7.60;99.90;;;;;;4974418;28;20264;-72
2021/11/22 05:34:19;;;;;;;7.87;6.57;;;7.60;99.90;;;;;;4974283;28;20213;-75
2021/11/22 05:36:46;;;;;;;8.73;4.80;;;7.60;99.90;;;;;;4974105;28;20689;-74
2021/11/22 05:39:13;;;;;;;7.60;5.30;;;7.60;99.90;;;;;;4973624;28;20284;-76
2021/11/22 05:41:40;;;;;;;9.47;5.23;;;7.60;99.90;;;;;;4974351;28;20206;-74
2021/11/22 05:44:08;;;;;;;7.47;5.30;;;7.50;99.90;;;;;;4974631;28;20280;-75
2021/11/22 05:46:35;;;;;;;8.97;5.57;;;7.40;99.90;;;;;;4973479;28;20673;-74
2021/11/22 05:49:03;;;;;;;6.27;5.07;;;7.40;99.90;;;;;;4973812;28;20213;-73
2021/11/22 05:51:31;;;;;;;6.67;4.83;;;7.30;99.90;;;;;;4973897;28;20674;-75
2021/11/22 05:53:59;;;;;;;6.97;4.97;;;7.30;99.90;;;;;;4973572;28;20306;-74
2021/11/22 05:56:26;;;;;;;6.70;4.93;;;7.30;99.90;;;;;;4973601;28;20209;-75
2021/11/22 05:58:53;;;;;;;7.57;5.27;;;7.40;99.90;;;;;;4973543;28;20210;-72
2021/11/22 06:01:20;;;;;;;6.27;4.77;;;7.40;99.90;;;;;;4973198;28;20241;-72
2021/11/22 06:03:47;;;;;;;11.00;5.43;;;7.40;99.90;;;;;;4973631;28;20205;-73
2021/11/22 06:06:16;;;;;;;10.07;5.73;;;7.30;99.90;;;;;;4973370;28;20206;-72
2021/11/22 06:08:43;;;;;;;6.87;5.23;;;7.40;99.90;;;;;;4973844;28;20217;-72
2021/11/22 06:11:10;;;;;;;8.83;4.87;;;7.40;99.90;;;;;;4973769;28;20657;-72
2021/11/22 06:13:37;;;;;;;7.60;5.83;;;7.40;99.90;;;;;;4973883;28;20584;-74
2021/11/22 06:16:04;;;;;;;6.03;4.63;;;7.30;99.90;;;;;;4973608;28;20218;-73
2021/11/22 06:18:31;;;;;;;8.10;5.33;;;7.20;99.90;;;;;;4973030;28;20557;-74
2021/11/22 06:20:58;;;;;;;7.40;4.97;;;7.10;99.90;;;;;;4972871;28;20233;-73
2021/11/22 06:23:27;;;;;;;7.40;5.20;;;7.10;99.90;;;;;;4959397;28;20209;-73
2021/11/22 06:25:54;;;;;;;5.47;3.50;;;6.90;99.90;;;;;;4973662;28;20209;-74
2021/11/22 06:28:21;;;;;;;17.67;4.93;;;6.90;99.90;;;;;;4972797;28;20609;-75
2021/11/22 06:30:48;;;;;;;5.13;3.80;;;6.90;99.90;;;;;;4973792;28;20218;-74
2021/11/22 06:33:15;;;;;;;6.33;5.50;;;6.80;99.90;;;;;;4973073;28;20260;-75
2021/11/22 06:35:43;;;;;;;5.97;4.13;;;6.90;99.90;;;;;;4973393;28;20209;-74
2021/11/22 06:38:11;;;;;;;4.73;3.20;;;7.00;99.90;;;;;;4973425;28;20221;-80
2021/11/22 06:40:39;;;;;;;9.40;4.27;;;7.00;99.90;;;;;;4972792;28;20270;-75
2021/11/22 06:43:07;;;;;;;6.43;4.53;;;7.00;99.90;;;;;;4972993;28;20206;-79
2021/11/22 06:45:34;;;;;;;6.10;4.57;;;7.00;99.90;;;;;;4971350;28;20268;-74
2021/11/22 06:48:01;;;;;;;7.43;4.70;;;7.00;99.90;;;;;;4972537;28;20284;-73
2021/11/22 06:50:28;;;;;;;8.20;4.87;;;7.00;99.90;;;;;;4972541;28;20213;-74
2021/11/22 06:52:55;;;;;;;6.23;4.43;;;7.40;99.90;;;;;;4972448;28;20213;-78
2021/11/22 06:55:22;;;;;;;6.23;4.43;;;7.60;99.90;;;;;;4972147;28;20625;-74
2021/11/22 06:57:51;;;;;;;5.77;4.27;;;7.40;99.90;;;;;;4968311;28;20210;-76
2021/11/22 07:00:20;;;;;;;7.63;4.50;;;7.40;99.90;;;;;;4971963;28;20228;-75
2021/11/22 07:02:50;;;;;;;5.20;4.70;;;7.30;99.90;;;;;;4971184;28;20210;-74
2021/11/22 07:05:18;;;;;;;6.40;4.60;;;7.20;99.90;;;;;;4971425;28;20209;-74
2021/11/22 07:07:45;;;;;;;7.97;4.03;;;7.20;99.90;;;;;;4974034;28;20208;-74
2021/11/22 07:10:12;;;;;;;8.30;4.37;;;7.20;99.90;;;;;;4972504;28;20213;-73
2021/11/22 07:12:39;;;;;;;6.80;4.50;;;7.10;99.90;;;;;;4972859;28;20292;-75
2021/11/22 07:15:09;;;;;;;5.57;4.27;;;7.20;99.90;;;;;;4972814;28;20209;-80
2021/11/22 07:17:36;;;;;;;6.30;4.27;;;7.10;99.90;;;;;;4972035;28;20735;-80
2021/11/22 07:20:04;;;;;;;6.07;4.03;;;7.30;99.90;;;;;;4972258;28;20284;-81
2021/11/22 07:22:31;;;;;;;5.03;4.10;;;7.50;99.90;;;;;;4971870;28;20337;-78
2021/11/22 07:24:58;;;;;;;6.57;4.83;;;7.40;99.90;;;;;;4971671;28;20217;-76
2021/11/22 07:27:26;;;;;;;5.90;4.47;;;7.30;99.90;;;;;;4971907;28;20210;-75
2021/11/22 07:29:54;;;;;;;7.27;4.80;;;7.40;99.90;;;;;;4972041;28;20669;-74
2021/11/22 07:32:23;;;;;;;6.17;4.20;;;7.50;99.90;;;;;;4971984;28;20264;-80
2021/11/22 07:34:50;;;;;;;6.13;5.17;;;7.60;99.90;;;;;;4970721;28;20568;-79
2021/11/22 07:37:17;;;;;;;6.07;4.57;;;7.50;99.90;;;;;;4971985;28;20210;-77
2021/11/22 07:39:44;;;;;;;5.97;4.13;;;7.60;99.90;;;;;;4971644;28;20933;-75
2021/11/22 07:42:11;;;;;;;6.57;5.40;;;7.70;99.90;;;;;;4972411;28;20209;-76
2021/11/22 07:44:38;;;;;;;6.00;4.00;;;7.70;99.90;;;;;;4972572;28;20205;-79
2021/11/22 07:47:06;;;;;;;6.00;4.47;;;7.60;99.90;;;;;;4971533;28;20217;-77
2021/11/22 07:49:35;;;;;;;6.67;4.77;;;7.60;99.90;;;;;;4970509;28;20213;-80
2021/11/22 07:52:02;;;;;;;7.63;5.10;;;7.60;99.90;;;;;;4971931;28;20268;-77
2021/11/22 07:54:29;;;;;;;6.63;5.23;;;7.80;99.90;;;;;;4971321;28;20213;-78
2021/11/22 07:56:56;;;;;;;11.00;4.87;;;7.70;99.90;;;;;;4967941;28;20214;-78
2021/11/22 07:59:23;;;;;;;5.47;3.60;;;7.70;99.90;;;;;;4971486;28;20214;-85
2021/11/22 08:01:50;;;;;;;5.17;4.20;;;7.70;99.90;;;;;;4971646;28;20709;-75
2021/11/22 08:04:18;;;;;;;5.43;4.27;;;7.60;99.90;;;;;;4971411;28;20595;-75
2021/11/22 08:06:50;;;;;;;6.00;3.97;;;7.60;99.90;;;;;;4971293;28;20237;-76
2021/11/22 08:09:25;;;;;;;7.07;4.80;;;7.70;99.90;;;;;;4971204;28;20267;-73
2021/11/22 08:14:39;;;;;;;5.87;4.57;;;7.90;99.90;;;;;;4971622;28;20208;-75
2021/11/22 08:17:07;;;;;;;6.77;4.57;;;7.90;99.90;;;;;;4970891;28;20201;-75
2021/11/22 08:19:35;;;;;;;8.03;5.20;;;7.80;99.90;;;;;;4969834;28;20216;-74
2021/11/22 08:22:03;;;;;;;6.80;4.70;;;7.90;99.90;;;;;;4971061;28;20241;-74
2021/11/22 08:24:31;;;;;;;7.03;5.07;;;8.00;99.90;;;;;;4969459;28;20217;-77
2021/11/22 08:26:58;;;;;;;7.70;5.03;;;7.90;99.90;;;;;;4966005;28;20210;-75
2021/11/22 08:29:25;;;;;;;5.53;4.63;;;8.00;99.90;;;;;;4971405;28;20268;-75
2021/11/22 08:31:53;;;;;;;6.40;4.73;;;8.00;99.90;;;;;;4969652;28;20296;-77
2021/11/22 08:34:20;;;;;;;6.87;4.70;;;8.10;99.90;;;;;;4968692;28;20677;-75
2021/11/22 08:36:47;;;;;;;8.80;5.33;;;8.10;99.90;;;;;;4971115;28;20216;-77
2021/11/22 08:39:15;;;;;;;6.77;5.00;;;8.20;99.90;;;;;;4973734;28;20673;-76
2021/11/22 08:41:42;;;;;;;7.17;5.73;;;8.10;99.90;;;;;;4972551;28;20239;-76
2021/11/22 08:44:10;;;;;;;7.90;5.10;;;8.10;99.90;;;;;;4971205;28;20260;-77
2021/11/22 08:46:38;;;;;;;6.63;5.10;;;8.10;99.90;;;;;;4975178;28;20209;-77
2021/11/22 08:49:07;;;;;;;5.83;5.03;;;7.90;99.90;;;;;;4963506;28;20224;-76
2021/11/22 08:51:34;;;;;;;8.20;5.13;;;7.80;99.90;;;;;;4975455;28;20232;-76
2021/11/22 08:54:01;;;;;;;8.17;5.37;;;8.00;99.90;;;;;;4969494;28;20214;-76
2021/11/22 08:56:29;;;;;;;6.50;4.77;;;8.20;99.90;;;;;;4972665;28;20205;-77
2021/11/22 08:58:57;;;;;;;8.43;5.83;;;8.30;99.90;;;;;;4975321;28;20209;-76
2021/11/22 09:01:24;;;;;;;6.93;4.97;;;8.30;99.90;;;;;;4973134;28;20241;-77
2021/11/22 09:03:52;;;;;;;8.00;5.07;;;8.20;99.90;;;;;;4971919;28;20288;-76
2021/11/22 09:06:19;;;;;;;8.07;5.03;;;8.00;99.90;;;;;;4971864;28;20206;-75
2021/11/22 09:08:47;;;;;;;11.40;7.50;;;8.00;99.90;;;;;;4970116;28;20300;-75
2021/11/22 09:11:14;;;;;;;7.00;5.43;;;8.00;99.90;;;;;;4973901;28;20579;-77
2021/11/22 09:13:43;;;;;;;7.50;6.07;;;8.00;99.90;;;;;;4974276;28;20740;-76
2021/11/22 09:16:11;;;;;;;7.33;5.63;;;7.90;99.90;;;;;;4974468;28;20260;-77
2021/11/22 09:18:38;;;;;;;8.77;5.40;;;8.10;99.90;;;;;;4973632;28;20206;-77
2021/11/22 09:21:05;;;;;;;8.70;5.83;;;8.20;99.90;;;;;;4974231;28;20229;-77
2021/11/22 09:23:33;;;;;;;8.07;5.33;;;8.30;99.90;;;;;;4974042;28;20688;-76
2021/11/22 09:26:00;;;;;;;6.83;5.80;;;8.30;99.90;;;;;;4974183;28;20672;-77
2021/11/22 09:28:27;;;;;;;8.83;6.40;;;8.40;99.90;;;;;;4972114;28;20693;-77
2021/11/22 09:30:56;;;;;;;9.03;6.30;;;8.30;99.90;;;;;;4969772;28;20217;-76
2021/11/22 09:33:23;;;;;;;8.07;6.53;;;8.30;99.90;;;;;;4972737;28;20674;-76
2021/11/22 09:35:50;;;;;;;7.07;5.77;;;8.30;99.90;;;;;;4973028;28;20209;-77
2021/11/22 09:38:17;;;;;;;10.00;5.90;;;8.30;99.90;;;;;;4973891;28;20252;-78
2021/11/22 09:40:44;;;;;;;7.13;6.03;;;8.50;99.90;;;;;;4974250;28;20237;-78
2021/11/22 09:43:11;;;;;;;11.27;7.17;;;8.60;99.90;;;;;;4974026;28;20674;-77
2021/11/22 09:45:39;;;;;;;7.97;6.30;;;8.60;99.90;;;;;;4974436;28;20201;-79
2021/11/22 09:48:07;;;;;;;8.90;6.27;;;8.70;99.90;;;;;;4974231;28;20643;-77
2021/11/22 09:50:35;;;;;;;7.70;6.00;;;8.80;99.90;;;;;;4972876;28;20273;-78
2021/11/22 09:53:03;;;;;;;12.60;6.60;;;8.80;99.90;;;;;;4974088;28;20260;-77
2021/11/22 09:55:31;;;;;;;6.90;5.50;;;8.90;99.90;;;;;;4973669;28;20209;-78
2021/11/22 09:57:58;;;;;;;8.27;5.43;;;9.10;99.90;;;;;;4973146;28;20260;-78
2021/11/22 10:00:33;;;;;;;8.27;6.87;;;9.10;99.90;;;;;;4973414;28;20213;-79
2021/11/22 10:02:59;;;;;;;9.57;6.70;;;9.30;99.90;;;;;;4973801;28;21648;-78
2021/11/22 10:05:30;;;;;;;7.00;6.13;;;9.30;99.90;;;;;;4973096;28;20209;-77
2021/11/22 10:08:03;;;;;;;6.73;5.77;;;9.20;99.90;;;;;;4974176;28;20201;-78
2021/11/22 10:10:36;;;;;;;8.53;6.07;;;9.30;99.90;;;;;;4973382;28;20217;-76
2021/11/22 10:13:22;;;;;;;6.83;5.90;;;9.40;99.90;;;;;;4971806;28;20574;-77
2021/11/22 10:15:50;;;;;;;9.23;7.03;;;9.40;99.90;;;;;;4971043;28;20654;-77
2021/11/22 10:18:19;;;;;;;8.13;6.30;;;9.50;99.90;;;;;;4976215;28;20205;-77
2021/11/22 10:20:48;;;;;;;9.50;6.67;;;9.30;99.90;;;;;;4972354;28;20233;-77
2021/11/22 10:23:21;;;;;;;8.70;6.13;;;9.20;99.90;;;;;;4971839;28;20205;-78
2021/11/22 10:25:49;;;;;;;8.27;5.97;;;9.20;99.90;;;;;;4971773;28;20213;-77
2021/11/22 10:28:17;;;;;;;8.30;6.63;;;9.10;99.90;;;;;;4970929;28;20280;-81
2021/11/22 10:30:46;;;;;;;7.57;6.07;;;9.20;99.90;;;;;;4972161;28;20213;-78
2021/11/22 10:33:16;;;;;;;10.00;6.80;;;9.30;99.90;;;;;;4971672;28;20678;-78
2021/11/22 10:35:45;;;;;;;11.03;5.60;;;9.40;99.90;;;;;;4972394;28;20213;-77
2021/11/22 10:38:16;;;;;;;8.93;5.83;;;9.60;99.90;;;;;;4972498;28;20242;-77
2021/11/22 10:40:46;;;;;;;8.67;6.50;;;9.50;99.90;;;;;;4973216;28;20205;-76
2021/11/22 10:43:13;;;;;;;12.43;6.63;;;9.50;99.90;;;;;;4968178;28;20210;-81
2021/11/22 10:45:42;;;;;;;8.77;5.77;;;9.60;99.90;;;;;;4973327;28;20206;-77
2021/11/22 10:48:22;;;;;;;8.40;7.33;;;9.30;99.90;;;;;;4969413;28;20217;-76
2021/11/22 10:50:53;;;;;;;7.83;5.73;;;9.30;99.90;;;;;;4969359;28;20216;-80
2021/11/22 10:53:34;;;;;;;8.07;6.57;;;9.20;99.90;;;;;;4972289;28;20213;-77
2021/11/22 10:56:04;;;;;;;10.00;7.23;;;8.90;99.90;;;;;;4972957;28;20212;-77
2021/11/22 10:58:52;;;;;;;11.77;6.57;;;9.30;99.90;;;;;;4971914;28;20210;-77
2021/11/22 11:01:28;;;;;;;9.43;6.53;;;9.60;99.90;;;;;;4970652;28;20283;-77
2021/11/22 11:03:59;;;;;;;10.80;6.70;;;9.70;99.90;;;;;;4972865;28;20217;-76
2021/11/22 11:06:47;;;;;;;8.77;6.30;;;9.70;99.90;;;;;;4971859;28;20198;-77
2021/11/22 11:09:22;;;;;;;8.27;6.47;;;9.70;99.90;;;;;;4972143;28;20729;-77
2021/11/22 11:11:53;;;;;;;9.83;7.27;;;9.80;99.90;;;;;;4972564;28;20256;-77
2021/11/22 11:14:20;;;;;;;8.10;6.13;;;9.90;99.90;;;;;;4970420;28;20201;-78
2021/11/22 11:16:47;;;;;;;8.27;6.53;;;10.20;99.90;;;;;;4972981;28;20213;-76
2021/11/22 11:19:18;;;;;;;5.93;5.10;;;10.40;99.90;;;;;;4970902;28;20214;-76
2021/11/22 11:21:48;;;;;;;7.70;5.40;;;10.30;99.90;;;;;;4972086;28;20237;-76
2021/11/22 11:24:16;;;;;;;9.47;6.50;;;10.20;99.90;;;;;;4972127;28;20213;-76
2021/11/22 11:26:47;;;;;;;8.40;5.63;;;10.10;99.90;;;;;;4970725;28;20214;-76
2021/11/22 11:29:14;;;;;;;8.63;5.90;;;10.20;99.90;;;;;;4971149;28;20221;-77
2021/11/22 11:31:41;;;;;;;10.23;6.80;;;9.90;99.90;;;;;;4971825;28;21599;-76
2021/11/22 11:34:10;;;;;;;7.93;6.57;;;9.50;99.90;;;;;;4970829;28;20260;-76
2021/11/22 11:36:58;;;;;;;8.47;6.13;;;9.40;99.90;;;;;;4972034;28;20218;-79
2021/11/22 11:39:57;;;;;;;6.83;5.70;;;9.50;99.90;;;;;;4969281;28;20205;-77
2021/11/22 11:42:52;;;;;;;8.47;7.67;;;9.60;99.90;;;;;;4967662;28;20755;-77
2021/11/22 11:45:20;;;;;;;7.77;6.77;;;9.60;99.90;;;;;;4971828;28;20209;-77
2021/11/22 11:47:56;;;;;;;9.17;6.83;;;9.50;99.90;;;;;;4971750;28;20214;-77
2021/11/22 11:50:28;;;;;;;9.03;6.30;;;9.60;99.90;;;;;;4971819;28;20205;-76
2021/11/22 11:52:59;;;;;;;12.50;7.97;;;9.70;99.90;;;;;;4971254;28;20221;-77
2021/11/22 11:55:26;;;;;;;8.37;6.53;;;9.80;99.90;;;;;;4971119;28;20260;-78
2021/11/22 11:58:15;;;;;;;8.57;7.07;;;9.80;99.90;;;;;;4971952;28;20264;-77
2021/11/22 12:00:53;;;;;;;8.03;7.23;;;9.90;99.90;;;;;;4971781;28;20220;-77
2021/11/22 12:03:20;;;;;;;9.37;6.60;;;9.80;99.90;;;;;;4970843;28;20229;-77
2021/11/22 12:05:49;;;;;;;9.83;7.10;;;10.00;99.90;;;;;;4968539;28;20205;-77
2021/11/22 12:08:27;;;;;;;10.27;7.03;;;10.30;99.90;;;;;;4971379;28;20205;-79
2021/11/22 12:10:56;;;;;;;8.80;6.57;;;10.40;99.90;;;;;;4971168;28;20268;-77
2021/11/22 12:13:26;;;;;;;7.50;6.53;;;10.50;99.90;;;;;;4971299;28;20260;-77
2021/11/22 12:15:55;;;;;;;7.70;6.27;;;10.30;99.90;;;;;;4971919;28;20217;-76
2021/11/22 12:18:27;;;;;;;9.03;7.00;;;10.20;99.90;;;;;;4971221;28;20210;-78
2021/11/22 12:21:14;;;;;;;6.90;5.70;;;10.00;99.90;;;;;;4970636;28;20213;-77
2021/11/22 12:23:48;;;;;;;9.53;6.40;;;9.70;99.90;;;;;;4961160;28;20256;-77
2021/11/22 12:26:37;;;;;;;8.63;5.70;;;9.90;99.90;;;;;;4971176;28;20263;-77
2021/11/22 12:29:07;;;;;;;9.73;6.73;;;10.10;99.90;;;;;;4968279;28;20209;-78
2021/11/22 12:31:49;;;;;;;9.00;6.83;;;10.20;99.90;;;;;;4971011;28;20206;-78
2021/11/22 12:34:16;;;;;;;10.83;7.53;;;10.10;99.90;;;;;;4968361;28;20272;-76
2021/11/22 12:36:49;;;;;;;10.47;7.37;;;9.70;99.90;;;;;;4971460;28;20633;-76
2021/11/22 12:39:26;;;;;;;6.53;5.77;;;9.90;99.90;;;;;;4970828;28;20271;-76
2021/11/22 12:42:17;;;;;;;32.37;17.17;;;10.00;99.90;;;;;;4968059;28;20597;-75
2021/11/22 12:44:58;;;;;;;10.57;7.37;;;9.70;99.90;;;;;;4970119;28;20198;-76
2021/11/22 12:47:28;;;;;;;11.13;7.73;;;9.50;99.90;;;;;;4967817;28;20221;-76
2021/11/22 12:50:14;;;;;;;9.10;6.70;;;9.80;99.90;;;;;;4971195;28;20209;-75
2021/11/22 12:52:42;;;;;;;8.27;6.23;;;10.00;99.90;;;;;;4963538;28;20201;-76
2021/11/22 12:55:16;;;;;;;8.40;6.63;;;9.90;99.90;;;;;;4972764;28;20206;-76
2021/11/22 12:57:46;;;;;;;8.63;6.43;;;10.00;99.90;;;;;;4980959;28;20713;-76
2021/11/22 13:00:21;;;;;;;14.63;9.63;;;10.20;99.90;;;;;;4970654;28;20634;-76
2021/11/22 13:02:51;;;;;;;9.53;5.93;;;10.30;99.90;;;;;;4971167;28;20225;-74
2021/11/22 13:05:55;;;;;;;8.67;6.30;;;10.10;99.90;;;;;;4970438;28;20253;-75